Tiempo atmosférico en la estación meteorológica de Calamocha, Teruel (890 m.)



Fecha
DESCASC
Temp. máxima en grados centígrados (hora)
DESCASC
Temp. mínima en grados centígrados (hora)
DESCASC
Temp. media en grados centígrados
DESCASC
Racha de viento máxima en m/sg (hora)
DESCASC
Velocidad máxima media en intervalos de 10 minutos(hora)
DESCASC
Precipitaciones diarias en mm
DESCASC
Precipitaciones de 00:00 a 06:00 en mm
DESCASC
Precipitaciones de 06:00 a 12:00 en mm
DESCASC
Precipitaciones de 12:00 a 18:00 en mm
DESCASC
Precipitaciones de 18:00 a 24:00 en mm
DESCASC
13-10-2019 27.7 (15:50) 11.5 (07:30) 19.6 10 (15:30) 5.28 (15:30) 0 0 0 0 0
12-10-2019 27.6 (15:50) 14.4 (07:50) 21 8.33 (18:50) 4.72 (15:10) 0 0 0 0 0
10-10-2019 24.5 (16:20) 11.1 (00:00) 17.8 6.94 (20:20) 4.72 (20:30) 0 0 0 0 0
09-10-2019 23.2 (16:00) 9.1 (00:00) 16.2 9.17 (22:20) 4.44 (22:00) 0 0 0 0 0
08-10-2019 29.4 (17:50) 7.9 (00:00) 18.6 6.67 (20:10) 4.72 (19:40) 0 0 0 0 0
07-10-2019 25.2 (17:00) 9.2 (00:00) 17.2 10.83 (18:20) 4.44 (18:10) 0 0 0 0 0
06-10-2019 23.4 (16:30) 5.9 (00:00) 14.6 11.67 (20:00) 4.44 (19:20) 0 0 0 0 0
05-10-2019 27.1 (16:30) 7.3 (08:30) 17.2 4.44 (17:30) 2.22 (21:40) 0 0 0 0 0
04-10-2019 27.6 (16:10) 5.1 (00:00) 16.4 6.11 (16:50) 2.5 (17:00) 0 0 0 0 0
03-10-2019 25.6 (17:20) 5.8 (00:00) 15.7 6.39 (18:30) 2.78 (18:30) 0 0 0 0 0
02-10-2019 20.7 (16:50) 9.5 (00:00) 15.1 9.44 (14:50) 4.17 (18:30) 0 0 0 0 0
01-10-2019 27.1 (13:50) 9.7 (00:00) 18.4 8.06 (16:30) 3.61 (16:40) 0 0 0 0 0
30-09-2019 31 (16:40) 7.1 (00:00) 19 5.56 (16:00) 2.22 (15:40) 0 0 0 0 0
29-09-2019 30.2 (16:50) 11.9 (00:00) 21.1 9.72 (14:00) 3.33 (16:00) 0 0 0 0 0
28-09-2019 29.8 (18:00) 6.8 (00:00) 18.3 5.28 (18:40) 2.78 (19:40) 0 0 0 0 0
27-09-2019 28.1 (17:20) 9 (00:00) 18.6 5 (14:20) 2.5 (17:20) 0 0 0 0 0
26-09-2019 29.2 (17:50) 7.9 (00:00) 18.6 5.28 (14:10) 2.78 (22:00) 0 0 0 0 0
25-09-2019 23.1 (16:50) 13.8 (00:00) 18.5 6.67 (13:00) 2.5 (11:00) 0 0 0 0 0
24-09-2019 28 (16:00) 9.1 (00:00) 18.6 8.89 (16:20) 4.44 (12:40) 0 0 0 0 0
23-09-2019 24.1 (16:30) 6.7 (00:00) 15.4 5.83 (14:40) 2.78 (13:50) 0 0 0 0 0
22-09-2019 22.3 (13:50) 13.7 (00:00) 18 10.28 (12:20) 5.83 (12:20) 1 0.4 0 0.6 0
21-09-2019 24.4 (16:10) 14.3 (00:00) 19.3 9.72 (02:00) 6.11 (02:00) 0.6 0.6 0 0 0
20-09-2019 26.7 (16:00) 13.3 (00:00) 20 10 (19:10) 5.83 (19:40) 0 0 0 0 0
19-09-2019 28.2 (15:30) 10 (00:00) 19.1 14.44 (18:20) 6.94 (19:50) 0 0 0 0 0
18-09-2019 25 (14:50) 10.1 (00:00) 17.6 8.61 (00:40) 3.89 (19:30) 0 0 0 0 0
17-09-2019 29 (17:00) 10.8 (00:00) 19.9 15.28 (21:30) 6.67 (21:30) 2 0 0 0 2
16-09-2019 25.5 (17:00) 14.7 (00:00) 20.1 13.33 (18:20) 8.89 (18:20) 0.8 0 0 0 0.8

Gráficas

Temp. máximas Temp. mínimas Temp. medias Precipitaciones Rachas de viento máximas Velocidades máximas media en intervalos de 10 minutos

Datos horarios

Fecha y hora oficial Temperatura (ºC) Velocidad del viento (km/h) Dirección del viento Racha (km/h) Dirección de racha Precipitación (mm) Presión (hPa) Tendencia (hPa) Humedad (%)
2019-10-15 23:00:00 8.1 5 Sudeste 13 Sur 0 920 1.7 61
2019-10-15 22:00:00 9.1 2 Norte 7 Noroeste 0 919.4 1.6 61
2019-10-15 21:00:00 9.4 2 Nordeste 5 Oeste 0 918.9 1.4 59
2019-10-15 20:00:00 12 4 Norte 15 Norte 0 918.3 0.8 52
2019-10-15 19:00:00 14.2 6 Norte 16 Noroeste 0 917.8 0 44
2019-10-15 18:00:00 16.4 7 Noroeste 22 Noroeste 0 917.5 -0.5 35
2019-10-15 17:00:00 17.1 7 Oeste 22 Noroeste 0 917.5 -1.1 34
2019-10-15 16:00:00 16.4 8 Noroeste 27 Norte 0 917.8 -1.3 35
2019-10-15 15:00:00 15.4 10 Noroeste 34 Oeste 0 918 -1.5 35
2019-10-15 14:00:00 14.3 9 Oeste 30 Noroeste 0 918.6 -0.4 44
2019-10-15 13:00:00 11.6 7 Noroeste 26 Norte 0 919.1 0.9 56
2019-10-15 12:00:00 9.9 10 Noroeste 38 Noroeste 0 919.5 2.2 61
2019-10-15 11:00:00 8.9 15 Noroeste 33 Oeste 0 919 2 64
2019-10-15 10:00:00 7.9 12 Noroeste 32 Norte 0 918.2 1.8 69
2019-10-15 09:00:00 6.9 9 Noroeste 21 Noroeste 0 917.3 1.1 72
2019-10-15 08:00:00 6.4 4 Oeste 10 Oeste 0 917 1.2 76
2019-10-15 07:00:00 6.1 5 Oeste 14 Oeste 0 916.4 0.9 76
2019-10-15 06:00:00 5.7 3 Sudoeste 9 Sudoeste 0 916.2 0.8 79
2019-10-15 05:00:00 5.9 4 Oeste 14 Oeste 0 915.8 0.8 78
2019-10-15 04:00:00 6.9 6 Oeste 18 Noroeste 0 915.5 0.9 80
2019-10-15 03:00:00 8 4 Noroeste 20 Oeste 0 915.4 0.9 78
2019-10-15 02:00:00 9 6 Oeste 27 Oeste 0 915 0.9 75
2019-10-15 01:00:00 9.5 5 Oeste 20 Sudoeste 0 914.6 0.7 74
2019-10-15 00:00:00 10.5 7 Oeste 30 Oeste 0 914.5 2.4 70
2019-10-14 23:00:00 10.6 8 Oeste 26 Sudoeste 0.2 914.1 2.6 78
2019-10-14 22:00:00 11.4 6 Noroeste 52 Sudoeste 0 913.9 2.9 65
2019-10-14 21:00:00 15.8 6 Oeste 39 Oeste 0 912.1 1.5 51
2019-10-14 20:00:00 16.9 13 Sudoeste 37 Oeste 0 911.5 0.7 52
2019-10-14 19:00:00 18.1 15 Sudoeste 39 Oeste 0 911 0.2 54
2019-10-14 18:00:00 19.2 17 Sudoeste 40 Oeste 0 910.6 0.1 54
2019-10-14 17:00:00 17.1 19 Oeste 38 Oeste 0.2 910.8 -1.1 68
2019-10-14 16:00:00 20.7 9 Oeste 41 Sudoeste 0 910.8 -2.1 51
2019-10-14 15:00:00 22.2 19 Sur 48 Sur 0 910.5 -2.9 46
2019-10-14 14:00:00 20.4 22 Sur 53 Sur 0 911.9 -2.3 52
2019-10-14 13:00:00 18.8 27 Sur 53 Sur 0 912.9 -0.3 58
2019-10-14 12:00:00 16.3 18 Sur 42 Sudoeste 0.2 913.4 1 72
2019-10-14 11:00:00 18 17 Sudoeste 45 Sur 0 914.2 1.5 59
2019-10-14 10:00:00 18.8 17 Sudoeste 31 Sudoeste 0 913.2 0.9 51
2019-10-14 09:00:00 18.3 11 Sur 44 Sudoeste 0 912.4 -0.3 54
2019-10-14 08:00:00 16.9 8 Sudoeste 24 Sudoeste 0 912.7 0 65
2019-10-14 07:00:00 15.7 9 Sur 23 Sudoeste 0 912.3 -1.6 74
2019-10-14 06:00:00 15.4 12 Sudoeste 21 Sudoeste 0 912.7 -2.2 78
2019-10-14 05:00:00 14.9 6 Sudeste 11 Sur 0 912.7 -2.3 78
2019-10-14 04:00:00 15.2 2 Sudeste 14 Sudoeste 0 913.9 -1.8 79
2019-10-14 03:00:00 16.1 7 Sudeste 25 Sudoeste 0 914.9 -1.1 74
2019-10-14 02:00:00 14.8 6 Sur 11 Sur 0 915 -1.1 79
2019-10-14 01:00:00 15.2 7 Sudeste 11 Sudeste 0 915.7 0 77
2019-10-14 00:00:00 14.9 6 Sudeste 9 Sur 0 916 0.7 69
2019-10-13 23:00:00 15.5 4 Sudeste 10 Sur 0 916.1 1.1 50
2019-10-13 22:00:00 16.6 5 Sur 9 Sur 0 915.7 1 39
2019-10-13 21:00:00 18.7 8 Sudeste 16 Sudeste 0 915.3 0.7 33
2019-10-13 20:00:00 22.2 8 Sudoeste 18 Sudoeste 0 915 0.2 27
2019-10-13 19:00:00 25.1 9 Oeste 25 Sur 0 914.7 0 23
2019-10-13 18:00:00 26.8 11 Sur 29 Sudoeste 0 914.6 -0.5 25
2019-10-13 17:00:00 26.7 17 Sudoeste 34 Sudoeste 0 914.8 -1.2 24
2019-10-13 16:00:00 27.4 14 Sudoeste 36 Sudoeste 0 914.7 -2 22
2019-10-13 15:00:00 26.8 14 Sudoeste 33 Sudoeste 0 915.1 -1.9 28
2019-10-13 14:00:00 25.8 10 Sudoeste 20 Oeste 0 916 -1.1 39
2019-10-13 13:00:00 23.7 11 Sudoeste 27 Oeste 0 916.7 0 48
2019-10-13 12:00:00 21.8 13 Sudoeste 28 Sudoeste 0 917 0.8 54
2019-10-13 11:00:00 19.4 10 Sur 23 Sudoeste 0 917.1 1.1 64
2019-10-13 10:00:00 17 2 Este 8 Nordeste 0 916.7 0.7 77
2019-10-13 09:00:00 13.3 3 Sudeste 12 Sudeste 0 916.2 0.1 89
2019-10-13 08:00:00 12.2 4 Este 10 Sur 0 916 -0.4 91
2019-10-13 07:00:00 12 5 Sudoeste 13 Sudoeste 0 916 -0.9 92
2019-10-13 06:00:00 12.6 4 Sudoeste 11 Sudoeste 0 916.1 -1.3 91
2019-10-13 05:00:00 12.4 2 Oeste 12 Sudeste 0 916.4 -1.6 89
2019-10-13 04:00:00 12.9 4 Este 11 Sur 0 916.9 -1.6 84
2019-10-13 03:00:00 13.6 8 Sudeste 10 Sur 0 917.4 -0.5 86
2019-10-13 02:00:00 14.9 6 Sudeste 11 Sudoeste 0 918 0.7 80
2019-10-13 01:00:00 16.9 5 Sur 17 Oeste 0 918.5 1.7 78
2019-10-13 00:00:00 15.8 0 Calma 8 Sudoeste 0 917.9 1.3 77
2019-10-12 23:00:00 17.9 3 Sudoeste 14 Sudeste 0 917.3 1 69
2019-10-12 22:00:00 19 5 Sur 10 Sur 0 916.8 1 64
2019-10-12 21:00:00 19.9 5 Sur 17 Sur 0 916.6 0.9 61
2019-10-12 20:00:00 21.6 9 Sur 23 Sudoeste 0 916.3 0.5 53
2019-10-12 19:00:00 23.4 13 Sudoeste 30 Sudoeste 0 915.8 -0.4 45
2019-10-12 18:00:00 24.8 10 Sur 26 Sur 0 915.7 -1.1 34
2019-10-12 17:00:00 25.5 12 Sur 27 Sudoeste 0 915.8 -2 33
2019-10-12 16:00:00 26.8 15 Sur 29 Sur 0 916.2 -2.3 26
2019-10-12 15:00:00 26.5 13 Sudoeste 25 Sudoeste 0 916.8 -1.9 26
2019-10-12 14:00:00 25 14 Sudoeste 26 Sudoeste 0 917.8 -0.9 33
2019-10-12 13:00:00 23.2 13 Sudoeste 26 Sudoeste 0 918.5 0 38
2019-10-12 12:00:00 20.8 5 Sudoeste 10 Sudeste 0 918.7 0.7 49
2019-10-12 11:00:00 18.2 4 Este 6 Sudeste 0 918.7 0.8 62
2019-10-12 10:00:00 16.3 4 Sudeste 8 Sudeste 0 918.5 0.3 75
2019-10-12 09:00:00 14.9 5 Sudeste 9 Sudeste 0 918 0 80
2019-10-12 08:00:00 14.5 5 Sudeste 8 Sudeste 0 917.9 0.1 82
2019-10-12 07:00:00 14.7 3 Sur 7 Sudeste 0 918.2 -0.2 81
2019-10-12 06:00:00 16 4 Este 14 Este 0 918 -0.5 76
2019-10-12 05:00:00 16.6 9 Este 13 Este 0 917.8 -0.7 77
2019-10-12 04:00:00 16.5 5 Sudeste 7 Sudeste 0 918.4 -0.6 77
2019-10-12 03:00:00 17.1 3 Sur 10 Sur 0 918.5 -0.7 73
2019-10-12 02:00:00 17.9 9 Sur 16 Sur 0 918.5 -0.4 70
2019-10-12 01:00:00 18.2 4 Sudeste 12 Sur 0 919 0.7 69
2019-10-12 00:00:00 18.8 4 Sudeste 11 Oeste 0 919.2 1.3 68
2019-10-11 23:00:00 20 5 Sudoeste 20 Sudoeste 0 918.9 1.4 61
2019-10-11 22:00:00 20.3 9 Sudeste 16 Sur 0 918.3 1.2 58
2019-10-11 21:00:00 21.2 5 Sur 24 Sur 0 917.9 0.7 50
2019-10-11 20:00:00 23 11 Sur 23 Sudeste 0 917.5 0 42
2019-10-11 19:00:00 25.3 15 Sur 33 Sur 0 917.1 -0.8 36
2019-10-11 18:00:00 26.7 17 Sur 37 Sur 0 917.2 -1.2 36
2019-10-11 17:00:00 27.9 15 Sudeste 25 Sur 0 917.5 -2.1 31
2019-10-11 16:00:00 27.4 6 Oeste 26 Sudoeste 0 917.9 -2.8 41
2019-10-11 15:00:00 28.5 11 Sur 26 Sudoeste 0 918.4 -2.8 34
2019-10-11 14:00:00 26.4 4 Sudoeste 9 Sudoeste 0 919.6 -1.9 43
2019-10-11 13:00:00 24 6 Sur 12 Sur 0 920.7 -0.6 51
2019-10-11 12:00:00 21 5 Sudoeste 14 Sudoeste 0 921.2 0.3 63
2019-10-11 11:00:00 18.3 6 Sur 12 Sudeste 0 921.5 0.9 72
2019-10-11 10:00:00 15.6 2 Sur 8 Sudeste 0 921.3 0.8 83
2019-10-11 09:00:00 13.5 3 Sudeste 10 Sur 0 920.9 0.4 91
2019-10-11 08:00:00 12.4 3 Sur 13 Sur 0 920.6 0.2 90
2019-10-11 07:00:00 12.8 7 Sur 13 Sur 0 920.5 -0.1 91
2019-10-11 06:00:00 12.9 5 Sudeste 10 Sudeste 0 920.5 -0.3 92
2019-10-11 05:00:00 12.6 3 Sudeste 8 Sudeste 0 920.4 -0.3 85
2019-10-11 04:00:00 13.9 5 Este 12 Este 0 920.6 -0.4 88
2019-10-11 03:00:00 14 6 Sudoeste 12 Sudoeste 0 920.8 0 87
2019-10-11 02:00:00 14.6 8 Este 14 Este 0 920.7 0 83
2019-10-11 01:00:00 15 8 Este 13 Este 0 921 0.5 80
2019-10-11 00:00:00 14.7 5 Este 8 Este 0 920.8 0.7 71
2019-10-10 23:00:00 15.9 8 Sudeste 18 Este 0 920.7 1 62
2019-10-10 22:00:00 16.5 10 Sudeste 17 Este 0 920.5 1.1 54
2019-10-10 21:00:00 17.5 5 Sudeste 25 Este 0 920.1 1 49
2019-10-10 20:00:00 19.2 12 Este 23 Este 0 919.7 0.6 46
2019-10-10 19:00:00 21.6 13 Este 23 Nordeste 0 919.4 0.1 42
2019-10-10 18:00:00 23 7 Norte 18 Norte 0 919.1 -0.9 43
2019-10-10 17:00:00 23.9 6 Noroeste 21 Noroeste 0 919.1 -1.8 47
2019-10-10 16:00:00 23.9 5 Noroeste 14 Noroeste 0 919.3 -2.2 46
2019-10-10 15:00:00 22.6 5 Oeste 15 Norte 0 920 -2 47
2019-10-10 14:00:00 21.4 4 Noroeste 12 Norte 0 920.9 -1.3 50
2019-10-10 13:00:00 18.8 5 Noroeste 14 Noroeste 0 921.5 -0.4 52
2019-10-10 12:00:00 15.6 6 Noroeste 14 Norte 0 922 1 57
2019-10-10 11:00:00 13.2 4 Noroeste 14 Norte 0 922.2 1.3 63
2019-10-10 10:00:00 12.7 5 Noroeste 16 Noroeste 0 921.9 1.2 64
2019-10-10 09:00:00 11.8 5 Norte 9 Norte 0 921 0.6 66
2019-10-10 08:00:00 11.6 3 Noroeste 9 Noroeste 0 920.9 0.3 65
2019-10-10 07:00:00 11.6 3 Noroeste 10 Noroeste 0 920.7 -0.1 66
2019-10-10 06:00:00 11.4 4 Norte 12 Norte 0 920.4 -0.8 67
2019-10-10 05:00:00 11.5 3 Norte 11 Noroeste 0 920.6 -0.9 67
2019-10-10 04:00:00 11.7 4 Noroeste 10 Nordeste 0 920.8 -0.7 67
2019-10-10 03:00:00 11.8 4 Norte 19 Norte 0 921.2 -0.1 66
2019-10-10 02:00:00 11.6 5 Norte 19 Norte 0 921.5 0.6 63
2019-10-10 01:00:00 11.4 6 Norte 16 Nordeste 0 921.5 1.2 65
2019-10-10 00:00:00 11.4 4 Norte 22 Norte 0 921.3 1.7 66
2019-10-09 23:00:00 12.2 11 Norte 33 Norte 0 920.9 2.2 64
2019-10-09 22:00:00 13.2 16 Norte 32 Nordeste 0 920.3 2.5 63
2019-10-09 21:00:00 14.7 13 Norte 27 Nordeste 0 919.6 2 62
2019-10-09 20:00:00 16.3 6 Norte 19 Norte 0 918.7 1.1 61
2019-10-09 19:00:00 19 12 Norte 28 Norte 0 917.8 0.3 56
2019-10-09 18:00:00 20.7 12 Norte 28 Norte 0 917.6 -0.1 53
2019-10-09 17:00:00 22 12 Norte 23 Norte 0 917.6 -0.5 50
2019-10-09 16:00:00 23.1 9 Norte 24 Este 0 917.5 -1.1 48
2019-10-09 15:00:00 22.7 8 Norte 21 Norte 0 917.7 -1.1 50
2019-10-09 14:00:00 22 7 Norte 22 Norte 0 918.1 -0.4 51
2019-10-09 13:00:00 21.3 8 Norte 22 Noroeste 0 918.6 -0.1 52
2019-10-09 12:00:00 20.1 6 Norte 16 Norte 0 918.8 0.2 57
2019-10-09 11:00:00 17 3 Oeste 8 Sudoeste 0 918.5 1.2 66
2019-10-09 10:00:00 14 3 Sur 6 Norte 0 918.7 1.4 73
2019-10-09 09:00:00 10 3 Norte 9 Norte 0 918.6 1.4 84
2019-10-09 08:00:00 9.4 0 Calma 5 Sur 0 917.3 0.4 84
2019-10-09 07:00:00 9.8 3 Oeste 7 Sudeste 0 917.3 0.2 82
2019-10-09 06:00:00 10.5 2 Norte 8 Sudeste 0 917.2 -0.2 79
2019-10-09 05:00:00 12 7 Sudeste 11 Sudeste 0 916.9 -0.8 77
2019-10-09 04:00:00 11 3 Sudoeste 5 Este 0 917.1 -0.8 75
2019-10-09 03:00:00 12 3 Sur 6 Sur 0 917.4 -0.5 67
2019-10-09 02:00:00 13 0 Calma 4 Sur 0 917.7 0.1 62
2019-10-09 01:00:00 13.5 0 Calma 10 Sudeste 0 917.9 0.6 62
2019-10-09 00:00:00 15.4 3 Sudoeste 8 Sudeste 0 917.9 0.8 55
2019-10-08 23:00:00 18.2 6 Sudeste 15 Este 0 917.6 1.2 41
2019-10-08 22:00:00 20.2 4 Sudeste 11 Este 0 917.3 1.2 35
2019-10-08 21:00:00 21.4 3 Sudoeste 24 Este 0 917.1 1 35
2019-10-08 20:00:00 23.8 15 Este 23 Este 0 916.4 -0.2 29
2019-10-08 19:00:00 28.4 3 Oeste 7 Sudeste 0 916.1 -0.9 35
2019-10-08 18:00:00 29.1 2 Este 10 Norte 0 916.1 -1.4 29
2019-10-08 17:00:00 28.7 4 Norte 10 Sudeste 0 916.6 -1.8 31
2019-10-08 16:00:00 28.2 5 Este 12 Sudeste 0 917 -2.3 33
2019-10-08 15:00:00 27 6 Norte 12 Nordeste 0 917.5 -2.5 34
2019-10-08 14:00:00 26.1 4 Sudoeste 16 Sudoeste 0 918.4 -2 37
2019-10-08 13:00:00 24.4 6 Sur 12 Sudoeste 0 919.3 -1 38
2019-10-08 12:00:00 21.2 6 Sudoeste 13 Sudoeste 0 920 -0.1 40
2019-10-08 11:00:00 17.6 7 Sur 14 Sudeste 0 920.4 0.6 51
2019-10-08 10:00:00 14.2 9 Sudeste 14 Sudeste 0 920.3 0.7 61
2019-10-08 09:00:00 9.1 0 Calma 6 Sudeste 0 920.1 0.5 73
2019-10-08 08:00:00 8.5 3 Noroeste 10 Sudeste 0 919.8 0.1 75
2019-10-08 07:00:00 9.2 3 Sur 11 Sudeste 0 919.6 -0.4 71
2019-10-08 06:00:00 8.6 3 Este 7 Sudoeste 0 919.6 -0.6 74
2019-10-08 05:00:00 9.1 3 Norte 8 Oeste 0 919.7 -0.4 72
2019-10-08 04:00:00 10.7 5 Sur 12 Oeste 0 920 -0.1 59
2019-10-08 03:00:00 11.1 5 Oeste 12 Sudeste 0 920.2 0.1 61
2019-10-08 02:00:00 11.7 5 Sudeste 11 Sudeste 0 920.1 0.3 54
2019-10-08 01:00:00 12.6 5 Sudoeste 13 Oeste 0 920.1 0.3 54
2019-10-08 00:00:00 14.3 6 Sudeste 12 Sudoeste 0 920.1 0.7 47
2019-10-07 23:00:00 16.3 5 Norte 13 Nordeste 0 919.8 1.3 42
2019-10-07 22:00:00 17 5 Norte 14 Nordeste 0 919.8 1.8 43
2019-10-07 21:00:00 18.9 5 Nordeste 9 Este 0 919.4 1.9 44
2019-10-07 20:00:00 20.9 2 Norte 22 Norte 0 918.5 1 47
2019-10-07 19:00:00 23 9 Norte 39 Norte 0 918 0.1 43
2019-10-07 18:00:00 24.4 10 Norte 33 Noroeste 0 917.5 -0.8 38
2019-10-07 17:00:00 25.1 9 Noroeste 30 Norte 0 917.5 -1.2 35
2019-10-07 16:00:00 24.2 12 Noroeste 32 Norte 0 917.9 -1 31
2019-10-07 15:00:00 23 12 Norte 36 Norte 0 918.3 -0.7 29
2019-10-07 14:00:00 22.3 12 Norte 32 Nordeste 0 918.7 -0.6 28
2019-10-07 13:00:00 21 14 Norte 33 Norte 0 918.9 -0.7 26
2019-10-07 12:00:00 19.3 9 Norte 24 Norte 0 919 -0.3 35
2019-10-07 11:00:00 16.8 10 Norte 21 Nordeste 0 919.3 0.4 42
2019-10-07 10:00:00 14.1 8 Norte 21 Noroeste 0 919.6 0.8 51
2019-10-07 09:00:00 11.2 5 Noroeste 14 Noroeste 0 919.3 0.3 73
2019-10-07 08:00:00 9.7 5 Norte 13 Oeste 0 918.9 -0.3 90
2019-10-07 07:00:00 9.2 3 Norte 7 Nordeste 0 918.8 -0.7 89
2019-10-07 06:00:00 10.6 2 Noroeste 4 Nordeste 0 919 -0.9 83
2019-10-07 05:00:00 12.2 2 Nordeste 10 Nordeste 0 919.2 -1 77
2019-10-07 04:00:00 12.5 4 Nordeste 12 Este 0 919.5 -0.9 76
2019-10-07 03:00:00 12.8 5 Nordeste 11 Norte 0 919.9 -0.9 81
2019-10-07 02:00:00 12.8 2 Noroeste 12 Nordeste 0 920.2 -0.3 82
2019-10-07 01:00:00 12.4 3 Nordeste 8 Este 0 920.4 0.7 83
2019-10-07 00:00:00 12.5 3 Norte 12 Norte 0 920.8 1.4 80
2019-10-06 23:00:00 13.2 5 Norte 13 Noroeste 0 920.5 1.5 78
2019-10-06 22:00:00 14.2 5 Norte 20 Norte 0 919.7 2 72
2019-10-06 21:00:00 15.5 9 Norte 30 Nordeste 0 919.4 1.8 70
2019-10-06 20:00:00 16.9 16 Norte 42 Norte 0 919 0.6 65
2019-10-06 19:00:00 21.8 6 Norte 14 Norte 0 917.7 -1.1 41
2019-10-06 18:00:00 22.8 6 Norte 18 Norte 0 917.6 -1.6 40
2019-10-06 17:00:00 22.8 9 Norte 23 Norte 0 918.4 -1.1 41
2019-10-06 16:00:00 22.5 10 Norte 24 Norte 0 918.8 -1.1 42
2019-10-06 15:00:00 21.9 6 Noroeste 24 Norte 0 919.2 -1.1 45
2019-10-06 14:00:00 22.3 6 Noroeste 17 Norte 0 919.5 -1.1 45
2019-10-06 13:00:00 20.1 4 Sur 9 Sur 0 919.9 -0.3 49
2019-10-06 12:00:00 17.3 4 Norte 11 Norte 0 920.3 0.6 57
2019-10-06 11:00:00 15.2 3 Sudoeste 5 Este 0 920.6 1.9 60
2019-10-06 10:00:00 10.6 2 Noroeste 5 Norte 0 920.2 2 76
2019-10-06 09:00:00 7.2 0 Calma 5 Sur 0 919.7 1.3 85
2019-10-06 08:00:00 6 3 Sudeste 6 Sur 0 918.7 0.6 88
2019-10-06 07:00:00 6.5 0 Calma 5 Oeste 0 918.2 -0.2 86
2019-10-06 06:00:00 7.3 2 Sudoeste 4 Este 0 918.4 -0.1 85
2019-10-06 05:00:00 8.2 3 Oeste 6 Sudoeste 0 918.1 0 82
2019-10-06 04:00:00 8.7 0 Calma 4 Sur 0 918.4 0.3 80
2019-10-06 03:00:00 9.6 3 Sudeste 4 Sudeste 0 918.5 0.4 75
2019-10-06 02:00:00 11.1 2 Sudoeste 6 Sur 0 918.1 0.2 72
2019-10-06 01:00:00 11.8 0 Calma 3 Noroeste 0 918.1 0.7 70
2019-10-06 00:00:00 13.4 2 Noroeste 4 Noroeste 0 918.1 1.3 66
2019-10-05 23:00:00 15 3 Norte 9 Norte 0 917.9 1.9 62
2019-10-05 22:00:00 17.3 4 Norte 14 Este 0 917.4 1.9 53
2019-10-05 21:00:00 18.8 3 Norte 8 Norte 0 916.8 1.6 47
2019-10-05 20:00:00 22.4 0 Calma 14 Nordeste 0 916 0.7 36
2019-10-05 19:00:00 25.6 4 Norte 13 Norte 0 915.5 0 28
2019-10-05 18:00:00 26.8 4 Noroeste 16 Norte 0 915.2 -0.8 30
2019-10-05 17:00:00 26.8 5 Norte 14 Noroeste 0 915.3 -1.2 31
2019-10-05 16:00:00 26 4 Norte 13 Sudoeste 0 915.5 -1.6 34
2019-10-05 15:00:00 25.3 4 Norte 10 Sudoeste 0 916 -1.5 36
2019-10-05 14:00:00 24.1 5 Sudoeste 12 Este 0 916.5 -1.2 39
2019-10-05 13:00:00 22.1 4 Este 10 Sur 0 917.1 -0.5 45
2019-10-05 12:00:00 19.4 4 Sur 12 Sudoeste 0 917.5 0.4 57
2019-10-05 11:00:00 15.3 4 Sudoeste 8 Sudoeste 0 917.7 1 73
2019-10-05 10:00:00 12.2 5 Sudoeste 8 Sudoeste 0 917.6 0.9 85
2019-10-05 09:00:00 8.6 4 Sudeste 5 Sudeste 0 917.1 0.3 91
2019-10-05 08:00:00 7.7 2 Nordeste 5 Sudoeste 0 916.7 -0.3 92
2019-10-05 07:00:00 8.7 2 Sur 13 Sur 0 916.7 -0.6 91
2019-10-05 06:00:00 9.4 4 Sur 7 Sur 0 916.8 -0.6 87
2019-10-05 05:00:00 10.2 2 Este 6 Norte 0 917 -0.2 88
2019-10-05 04:00:00 11.2 2 Sudeste 9 Norte 0 917.3 -0.1 86
2019-10-05 03:00:00 11.4 4 Norte 6 Norte 0 917.4 0.1 85
2019-10-05 02:00:00 12.6 2 Norte 5 Norte 0 917.2 0.1 80
2019-10-05 01:00:00 14.2 3 Norte 9 Norte 0 917.4 0.7 78
2019-10-05 00:00:00 15.4 4 Norte 18 Norte 0 917.3 1.3 75
2019-10-04 23:00:00 16.3 4 Noroeste 13 Norte 0 917.1 1.7 67
2019-10-04 22:00:00 17 5 Norte 10 Norte 0 916.7 1.8 62
2019-10-04 21:00:00 18.7 3 Noroeste 8 Sudoeste 0 916 1.2 49
2019-10-04 20:00:00 22.5 0 Calma 6 Norte 0 915.4 0.6 39
2019-10-04 19:00:00 25.3 4 Norte 19 Nordeste 0 914.9 -0.5 31
2019-10-04 18:00:00 26.1 9 Nordeste 21 Norte 0 914.8 -1.3 29
2019-10-04 17:00:00 26.7 9 Norte 22 Nordeste 0 914.8 -2.2 26
2019-10-04 16:00:00 27.5 6 Norte 21 Este 0 915.4 -2.4 25
2019-10-04 15:00:00 26.3 9 Oeste 18 Noroeste 0 916.1 -2.4 26
2019-10-04 14:00:00 25.6 5 Sur 13 Sudeste 0 917 -1.9 28
2019-10-04 13:00:00 23.3 4 Sudoeste 12 Sur 0 917.8 -1.3 34
2019-10-04 12:00:00 19.6 6 Sur 13 Sudoeste 0 918.5 -0.4 42
2019-10-04 11:00:00 16 6 Sur 13 Sudeste 0 918.9 0.4 51
2019-10-04 10:00:00 12.1 9 Sudeste 12 Sur 0 919.1 0.6 62
2019-10-04 09:00:00 6.9 2 Este 3 Noroeste 0 918.9 0.3 78
2019-10-04 08:00:00 5.3 0 Calma 4 Oeste 0 918.5 -0.1 83
2019-10-04 07:00:00 5.6 0 Calma 5 Sudoeste 0 918.5 -0.4 83
2019-10-04 06:00:00 6.6 5 Sur 8 Sur 0 918.6 -0.6 79
2019-10-04 05:00:00 6.2 4 Sur 5 Sur 0 918.6 -0.4 77
2019-10-04 04:00:00 6.8 0 Calma 5 Nordeste 0 918.9 -0.2 77
2019-10-04 03:00:00 7.7 2 Sur 5 Sur 0 919.2 0.1 73
2019-10-04 02:00:00 8.6 3 Sudeste 5 Sudeste 0 919 0.3 69
2019-10-04 01:00:00 9.7 3 Sudeste 5 Sudeste 0 919.1 0.8 64
2019-10-04 00:00:00 11.1 3 Sur 5 Sur 0 919.1 1.2 63
2019-10-03 23:00:00 13.1 2 Sudeste 7 Sudeste 0 918.7 1.3 60
2019-10-03 22:00:00 14.7 3 Norte 5 Norte 0 918.3 1.7 54
2019-10-03 21:00:00 17.3 3 Noroeste 9 Noroeste 0 917.9 1.4 48
2019-10-03 20:00:00 20 4 Noroeste 20 Noroeste 0 917.4 1 40
2019-10-03 19:00:00 24.1 7 Noroeste 23 Noroeste 0 916.6 0 22
2019-10-03 18:00:00 24.9 8 Noroeste 21 Norte 0 916.5 -0.5 20
2019-10-03 17:00:00 25 7 Norte 21 Norte 0 916.4 -1.2 22
2019-10-03 16:00:00 24.7 8 Norte 18 Norte 0 916.6 -1.7 24
2019-10-03 15:00:00 23.6 3 Noroeste 9 Oeste 0 917 -2 31
2019-10-03 14:00:00 20.7 5 Nordeste 12 Norte 0 917.6 -1.8 39
2019-10-03 13:00:00 18.6 5 Sudeste 13 Sudeste 0 918.3 -0.7 48
2019-10-03 12:00:00 15.5 5 Nordeste 11 Nordeste 0 919 0.4 55
2019-10-03 11:00:00 12.4 4 Sudeste 10 Sur 0 919.4 0.9 68
2019-10-03 10:00:00 9.2 4 Sur 9 Sur 0 919 0.7 81
2019-10-03 09:00:00 6.2 3 Sur 7 Sudeste 0 918.6 0.5 89
2019-10-03 08:00:00 6 3 Sudeste 9 Sudeste 0 918.5 0 89
2019-10-03 07:00:00 6.8 6 Sur 11 Sur 0 918.3 0 89
2019-10-03 06:00:00 7.2 3 Sur 9 Sudeste 0 918.1 -0.6 87
2019-10-03 05:00:00 7.5 3 Sudeste 7 Sur 0 918.5 -0.8 88
2019-10-03 04:00:00 7.7 0 Calma 5 Sur 0 918.3 -1.3 88
2019-10-03 03:00:00 8 3 Sudoeste 6 Sur 0 918.7 -1.3 86
2019-10-03 02:00:00 9.6 3 Noroeste 12 Norte 0 919.3 -0.3 83
2019-10-03 01:00:00 10.7 4 Nordeste 9 Sudeste 0 919.6 0.7 79
2019-10-03 00:00:00 11.2 5 Sur 12 Norte 0 920 1.7 74
2019-10-02 23:00:00 12.5 3 Norte 15 Nordeste 0 919.6 1.8 70
2019-10-02 22:00:00 13.6 9 Norte 23 Nordeste 0 918.9 1.5 64
2019-10-02 21:00:00 14.3 8 Norte 22 Norte 0 918.3 1.3 61
2019-10-02 20:00:00 15.9 10 Norte 31 Norte 0 917.8 0.8 54
2019-10-02 19:00:00 18 14 Norte 34 Nordeste 0 917.4 0.4 46
2019-10-02 18:00:00 19.7 11 Norte 29 Nordeste 0 917 0 42
2019-10-02 17:00:00 20.4 14 Norte 34 Norte 0 917 -0.5 41
2019-10-02 16:00:00 19.7 13 Norte 31 Norte 0 917 -0.5 42
2019-10-02 15:00:00 19.2 11 Norte 34 Norte 0 917 -0.2 45
2019-10-02 14:00:00 18.4 10 Noroeste 27 Norte 0 917.5 0.3 47
2019-10-02 13:00:00 18.3 10 Norte 27 Norte 0 917.5 0.5 45
2019-10-02 12:00:00 17.5 7 Norte 22 Norte 0 917.2 0.7 48
2019-10-02 11:00:00 16.1 7 Norte 22 Norte 0 917.2 1.3 55
2019-10-02 10:00:00 14.7 7 Noroeste 16 Norte 0 917 1.5 65
2019-10-02 09:00:00 11.9 3 Sudeste 6 Noroeste 0 916.5 1.2 76
2019-10-02 08:00:00 11.2 2 Sur 6 Sudeste 0 915.9 0.8 79
2019-10-02 07:00:00 10.5 5 Sur 6 Oeste 0 915.5 0.5 85
2019-10-02 06:00:00 9.5 4 Oeste 7 Oeste 0 915.3 0.3 88
2019-10-02 05:00:00 10.5 3 Norte 8 Norte 0 915.1 0 84
2019-10-02 04:00:00 11.3 4 Norte 9 Norte 0 915 0 81
2019-10-02 03:00:00 12.2 3 Norte 8 Este 0 915 0 78
2019-10-02 02:00:00 12.9 5 Sudeste 7 Sudeste 0 915.1 0.7 71
2019-10-02 01:00:00 14.4 3 Noroeste 9 Este 0 915 1 70
2019-10-02 00:00:00 15 4 Nordeste 8 Sudeste 0 915 1.3 59
2019-10-01 23:00:00 15.9 3 Sur 8 Sudeste 0 914.4 1.2 57
2019-10-01 22:00:00 18.5 2 Sudeste 15 Noroeste 0 914 1.5 49
2019-10-01 21:00:00 19.9 6 Noroeste 24 Norte 0 913.7 1.5 46
2019-10-01 20:00:00 21.4 9 Noroeste 26 Noroeste 0 913.2 1 39
2019-10-01 19:00:00 23.8 8 Noroeste 26 Noroeste 0 912.5 0.1 37
2019-10-01 18:00:00 25 10 Noroeste 24 Noroeste 0 912.2 -0.5 37
2019-10-01 17:00:00 25.7 10 Noroeste 29 Nordeste 0 912.2 -1.1 37
2019-10-01 16:00:00 26.6 8 Oeste 26 Noroeste 0 912.4 -1.2 29
2019-10-01 15:00:00 26.4 12 Norte 24 Norte 0 912.7 -1.6 28
2019-10-01 14:00:00 27.1 8 Norte 23 Oeste 0 913.3 -1.7 24
2019-10-01 13:00:00 26.2 6 Noroeste 25 Sudoeste 0 913.6 -1.2 26
2019-10-01 12:00:00 22.8 4 Nordeste 7 Nordeste 0 914.3 0 32
2019-10-01 11:00:00 18.5 5 Sudoeste 10 Sudoeste 0 915 0.8 50
2019-10-01 10:00:00 14 2 Sur 6 Sudeste 0 914.8 0.7 67
2019-10-01 09:00:00 10.5 0 Calma 5 Noroeste 0 914.3 0 75
2019-10-01 08:00:00 11.2 3 Sur 17 Sudeste 0 914.2 -0.5 73
2019-10-01 07:00:00 11.3 11 Sudeste 16 Sudeste 0 914.1 -1.1 72
2019-10-01 06:00:00 11 4 Sudeste 13 Sudeste 0 914.3 -1.8 75
2019-10-01 05:00:00 10.8 4 Sur 12 Sudeste 0 914.7 -1.4 72
2019-10-01 04:00:00 10.2 0 Calma 7 Sudeste 0 915.2 -1.2 74
2019-10-01 03:00:00 11 2 Sudeste 6 Sur 0 916.1 -0.3 68
2019-10-01 02:00:00 11.9 2 Sudeste 7 Oeste 0 916.1 -0.4 63
2019-10-01 01:00:00 13.5 7 Sudeste 12 Sudeste 0 916.4 0.1 57
2019-10-01 00:00:00 14.8 0 Calma 4 Oeste 0 916.4 0.6 56
2019-09-30 23:00:00 16.4 3 Sudoeste 6 Oeste 0 916.5 1 58
2019-09-30 22:00:00 19.2 3 Oeste 11 Este 0 916.3 1.4 47
2019-09-30 21:00:00 22 5 Sur 9 Norte 0 915.8 0.8 36
2019-09-30 20:00:00 24.6 4 Norte 17 Norte 0 915.5 0 32
2019-09-30 19:00:00 28.9 5 Noroeste 17 Norte 0 914.9 -1.2 19
2019-09-30 18:00:00 30.7 5 Sudoeste 18 Sur 0 915 -1.7 20
2019-09-30 17:00:00 30.7 5 Oeste 15 Sur 0 915.5 -2.3 20
2019-09-30 16:00:00 30.5 6 Sudoeste 20 Sudoeste 0 916.1 -2.4 18
2019-09-30 15:00:00 29.6 5 Sudoeste 15 Oeste 0 916.7 -2.5 22
2019-09-30 14:00:00 27.8 4 Oeste 14 Oeste 0 917.8 -1.8 26
2019-09-30 13:00:00 25.1 3 Noroeste 6 Oeste 0 918.5 -1.1 30
2019-09-30 12:00:00 21.9 3 Oeste 9 Sur 0 919.2 -0.1 35
2019-09-30 11:00:00 18.4 5 Sur 10 Sudeste 0 919.6 0.5 43
2019-09-30 10:00:00 13.4 3 Sur 6 Sudeste 0 919.6 0.8 62
2019-09-30 09:00:00 8.4 0 Calma 4 Sudoeste 0 919.3 0.5 74
2019-09-30 08:00:00 7.1 0 Calma 5 Sudoeste 0 919.1 0.4 77
2019-09-30 07:00:00 8 4 Sudeste 6 Sur 0 918.8 -0.2 70
2019-09-30 06:00:00 8.3 2 Este 5 Sur 0 918.8 -0.4 73
2019-09-30 05:00:00 9 3 Sudeste 5 Este 0 918.7 -0.5 67
2019-09-30 04:00:00 10.3 2 Sur 9 Sudoeste 0 919 -0.1 64
2019-09-30 03:00:00 10.7 0 Calma 8 Sur 0 919.2 0.2 63
2019-09-30 02:00:00 11.5 0 Calma 3 Sur 0 919.2 0.3 57
2019-09-30 01:00:00 13.1 3 Sudeste 5 Sudeste 0 919.1 0.8 50
2019-09-30 00:00:00 15 0 Calma 5 Sudoeste 0 919 1.4 46
2019-09-29 23:00:00 17.2 3 Sur 9 Sudeste 0 918.9 1.9 44
2019-09-29 22:00:00 19.4 4 Sudeste 9 Sudeste 0 918.3 1.5 34
2019-09-29 21:00:00 21.9 5 Norte 10 Norte 0 917.6 0.8 30
2019-09-29 20:00:00 25.2 4 Noroeste 15 Oeste 0 917 0 26
2019-09-29 19:00:00 28.4 6 Noroeste 19 Noroeste 0 916.8 -0.5 21
2019-09-29 18:00:00 29.6 8 Oeste 25 Oeste 0 916.8 -0.9 18
2019-09-29 17:00:00 30 9 Noroeste 26 Noroeste 0 917 -1.4 17
2019-09-29 16:00:00 29.8 12 Noroeste 28 Norte 0 917.3 -1.4 18
2019-09-29 15:00:00 29.4 9 Noroeste 25 Noroeste 0 917.7 -1.7 20
2019-09-29 14:00:00 28.3 10 Noroeste 35 Noroeste 0 918.4 -1.3 22
2019-09-29 13:00:00 25.8 8 Sudoeste 15 Sudoeste 0 918.7 -0.9 37
2019-09-29 12:00:00 21.7 8 Sur 15 Sudeste 0 919.4 0.2 59
2019-09-29 11:00:00 17.2 5 Sur 10 Sudoeste 0 919.7 0.6 79
2019-09-29 10:00:00 14.4 6 Sudeste 10 Sur 0 919.6 0.8 93
2019-09-29 09:00:00 13.6 5 Sur 12 Sudeste 0 919.2 0.3 95
2019-09-29 08:00:00 13.9 7 Sur 12 Sudeste 0 919.1 0.1 96
2019-09-29 07:00:00 13.8 7 Sudeste 13 Sudeste 0 918.8 -0.6 97
2019-09-29 06:00:00 13.9 6 Sudeste 12 Sudeste 0 918.9 -0.8 95
2019-09-29 05:00:00 13.5 7 Sudeste 11 Sudeste 0 919 -0.7 96
2019-09-29 04:00:00 12 2 Sur 9 Sudeste 0 919.4 -0.3 84
2019-09-29 03:00:00 12.8 6 Sudeste 10 Sudeste 0 919.7 -0.1 79
2019-09-29 02:00:00 13.6 7 Sudeste 9 Sudeste 0 919.7 0 76
2019-09-29 01:00:00 14.4 5 Sur 9 Sur 0 919.7 0.4 72
2019-09-29 00:00:00 15.8 4 Sur 11 Sur 0 919.8 0.7 66
2019-09-28 23:00:00 17.5 4 Sudeste 14 Sudeste 0 919.7 1.2 61
2019-09-28 22:00:00 19.3 3 Noroeste 11 Sudeste 0 919.3 1.1 58
2019-09-28 21:00:00 21.1 6 Nordeste 17 Este 0 919.1 1.2 51
2019-09-28 20:00:00 23.5 8 Nordeste 19 Nordeste 0 918.5 0.3 43
2019-09-28 19:00:00 26.5 7 Norte 19 Noroeste 0 918.2 -0.6 33
2019-09-28 18:00:00 29.7 8 Sudoeste 18 Sudoeste 0 917.9 -1.5 22
2019-09-28 17:00:00 28.8 4 Noroeste 14 Norte 0 918.2 -2.1 24
2019-09-28 16:00:00 28.2 6 Norte 13 Norte 0 918.8 -2.1 26
2019-09-28 15:00:00 28.2 6 Sur 15 Sudoeste 0 919.4 -2.1 26
2019-09-28 14:00:00 26.5 4 Este 10 Este 0 920.3 -1.4 28
2019-09-28 13:00:00 23.9 4 Oeste 8 Noroeste 0 920.9 -0.8 40
2019-09-28 12:00:00 20.2 3 Oeste 8 Sur 0 921.5 0.2 43
2019-09-28 11:00:00 17 5 Sur 11 Sudeste 0 921.7 0.8 50
2019-09-28 10:00:00 12.8 3 Sur 8 Sur 0 921.7 0.9 62
2019-09-28 09:00:00 8.8 4 Sudeste 6 Sudeste 0 921.3 0.8 75
2019-09-28 08:00:00 6.9 4 Sur 8 Sur 0 920.9 0.4 83
2019-09-28 07:00:00 6.8 4 Norte 8 Sudeste 0 920.8 0.1 85
2019-09-28 06:00:00 7.8 6 Sudeste 8 Sudeste 0 920.5 -0.2 76
2019-09-28 05:00:00 8.4 0 Calma 7 Sudeste 0 920.5 -0.1 82
2019-09-28 04:00:00 9.2 0 Calma 5 Norte 0 920.7 0.3 79
2019-09-28 03:00:00 10.1 2 Oeste 5 Norte 0 920.7 0.6 77
2019-09-28 02:00:00 11.5 2 Nordeste 5 Sur 0 920.6 0.8 71
2019-09-28 01:00:00 13.1 0 Calma 3 Nordeste 0 920.4 1.1 61
2019-09-28 00:00:00 14.8 0 Calma 4 Sur 0 920.1 1.7 59
2019-09-27 23:00:00 16.5 0 Calma 5 Noroeste 0 919.8 1.9 57
2019-09-27 22:00:00 18.4 3 Norte 8 Norte 0 919.3 1.8 48
2019-09-27 21:00:00 21 3 Noroeste 6 Norte 0 918.4 1.1 42
2019-09-27 20:00:00 23.7 4 Norte 14 Norte 0 917.9 0.5 36
2019-09-27 19:00:00 27.2 3 Noroeste 13 Noroeste 0 917.5 -0.3 32
2019-09-27 18:00:00 27.2 6 Nordeste 18 Este 0 917.3 -1 29
2019-09-27 17:00:00 27.7 5 Noroeste 18 Norte 0 917.4 -1.4 29
2019-09-27 16:00:00 27 6 Norte 17 Norte 0 917.8 -1.4 29
2019-09-27 15:00:00 26.4 8 Norte 18 Norte 0 918.3 -1.5 29
2019-09-27 14:00:00 26.1 4 Nordeste 10 Norte 0 918.8 -1.3 31
2019-09-27 13:00:00 24.2 5 Nordeste 14 Este 0 919.2 -0.8 35
2019-09-27 12:00:00 22.3 4 Noroeste 8 Sur 0 919.8 -0.2 42
2019-09-27 11:00:00 18.8 4 Sudoeste 11 Sur 0 920.1 0.2 56
2019-09-27 10:00:00 14.6 2 Sudeste 5 Oeste 0 920 0.5 70
2019-09-27 09:00:00 10.7 2 Oeste 5 Oeste 0 920 0.8 81
2019-09-27 08:00:00 9.3 2 Oeste 7 Sudeste 0 919.9 0.6 83
2019-09-27 07:00:00 9.9 0 Calma 7 Sudeste 0 919.5 0.1 82
2019-09-27 06:00:00 10.6 0 Calma 6 Sur 0 919.2 -0.3 81
2019-09-27 05:00:00 11.1 3 Sur 5 Sur 0 919.3 -0.3 72
2019-09-27 04:00:00 11.6 3 Norte 5 Este 0 919.4 -0.4 74
2019-09-27 03:00:00 13 4 Sur 6 Sur 0 919.5 -0.1 67
2019-09-27 02:00:00 14.3 5 Sudeste 8 Sudeste 0 919.6 0.3 61
2019-09-27 01:00:00 15.4 5 Sudeste 10 Sudeste 0 919.8 0.8 60
2019-09-27 00:00:00 16.4 2 Noroeste 10 Sudeste 0 919.6 1.2 60
2019-09-26 23:00:00 18.6 4 Sur 14 Este 0 919.3 1.5 52
2019-09-26 22:00:00 20.8 10 Este 16 Este 0 919 1.5 44
2019-09-26 21:00:00 22.2 4 Nordeste 10 Noroeste 0 918.4 1 39
2019-09-26 20:00:00 24.7 4 Noroeste 16 Norte 0 917.8 0.3 37
2019-09-26 19:00:00 27.8 5 Noroeste 11 Norte 0 917.5 -0.4 31
2019-09-26 18:00:00 29.2 5 Oeste 12 Este 0 917.4 -0.8 30
2019-09-26 17:00:00 28.5 4 Norte 10 Norte 0 917.5 -1.5 28
2019-09-26 16:00:00 27.3 5 Norte 13 Este 0 917.9 -1.7 31
2019-09-26 15:00:00 27.1 8 Sur 19 Sudoeste 0 918.2 -2 32
2019-09-26 14:00:00 25.8 9 Sur 18 Sudoeste 0 919 -1.6 34
2019-09-26 13:00:00 23.8 6 Sur 17 Sudoeste 0 919.6 -0.8 38
2019-09-26 12:00:00 21.1 7 Sudoeste 15 Sudoeste 0 920.2 0.1 45
2019-09-26 11:00:00 17.7 8 Sudoeste 13 Sudoeste 0 920.6 1 57
2019-09-26 10:00:00 14.5 5 Sudeste 14 Sudeste 0 920.4 1.1 65
2019-09-26 09:00:00 10.5 10 Sudeste 15 Sudeste 0 920.1 0.9 82
2019-09-26 08:00:00 8.3 4 Sur 7 Sudeste 0 919.6 0.3 84
2019-09-26 07:00:00 8.1 0 Calma 3 Noroeste 0 919.3 0.1 84
2019-09-26 06:00:00 8.8 0 Calma 6 Sudeste 0 919.2 -0.1 81
2019-09-26 05:00:00 9.3 0 Calma 5 Sudeste 0 919.3 0.1 78
2019-09-26 04:00:00 9.9 0 Calma 4 Nordeste 0 919.2 0 79
2019-09-26 03:00:00 10.6 2 Norte 3 Nordeste 0 919.3 0.1 76
2019-09-26 02:00:00 11.6 0 Calma 6 Sur 0 919.2 0.3 72
2019-09-26 01:00:00 13 4 Sur 8 Sudeste 0 919.2 0.9 64
2019-09-26 00:00:00 13.8 3 Sur 9 Norte 0 919.2 1.4 60
2019-09-25 23:00:00 15 4 Norte 11 Noroeste 0 918.9 1.6 57
2019-09-25 22:00:00 16.7 7 Norte 14 Norte 0 918.3 1.2 51
2019-09-25 21:00:00 17.7 5 Norte 14 Noroeste 0 917.8 1.1 46
2019-09-25 20:00:00 18.7 5 Noroeste 16 Norte 0 917.3 0.7 45
2019-09-25 19:00:00 20.2 6 Norte 24 Norte 0 917.1 0.2 41
2019-09-25 18:00:00 21.7 8 Norte 21 Norte 0 916.7 -0.6 38
2019-09-25 17:00:00 22.4 8 Norte 24 Noroeste 0 916.6 -1.1 35
2019-09-25 16:00:00 22.8 7 Noroeste 23 Noroeste 0 916.9 -1.2 37
2019-09-25 15:00:00 21.7 8 Noroeste 22 Noroeste 0 917.3 -1 38
2019-09-25 14:00:00 21.4 7 Noroeste 22 Noroeste 0 917.7 -0.7 38
2019-09-25 13:00:00 20 9 Norte 24 Noroeste 0 918.1 0 43
2019-09-25 12:00:00 18.9 8 Noroeste 21 Norte 0 918.3 0.5 47
2019-09-25 11:00:00 17 9 Norte 21 Norte 0 918.4 1.4 54
2019-09-25 10:00:00 15.2 5 Norte 14 Noroeste 0 918.1 1.4 64
2019-09-25 09:00:00 14.5 3 Noroeste 12 Noroeste 0 917.8 1.4 72
2019-09-25 08:00:00 15.2 3 Noroeste 12 Noroeste 0 917 0.5 72
2019-09-25 07:00:00 15.7 5 Noroeste 24 Noroeste 0 916.7 0.1 69
2019-09-25 06:00:00 16.2 9 Noroeste 21 Norte 0 916.4 -0.3 68
2019-09-25 05:00:00 16.4 8 Noroeste 21 Noroeste 0 916.5 -0.2 69
2019-09-25 04:00:00 16.4 2 Norte 13 Norte 0 916.6 -0.2 75
2019-09-25 03:00:00 15.1 3 Nordeste 7 Norte 0 916.7 -0.3 82
2019-09-25 02:00:00 15.7 2 Sur 5 Oeste 0 916.7 -0.4 79
2019-09-25 01:00:00 15.7 0 Calma 4 Nordeste 0 916.8 -0.4 77
2019-09-25 00:00:00 17.1 2 Noroeste 8 Sur 0 917 0.4 73
2019-09-24 23:00:00 18.2 3 Norte 7 Norte 0 917.1 1 67
2019-09-24 22:00:00 20 4 Norte 9 Noroeste 0 917.2 1.4 59
2019-09-24 21:00:00 22.2 3 Noroeste 14 Oeste 0 916.6 0.8 48
2019-09-24 20:00:00 24.1 6 Noroeste 20 Oeste 0 916.1 0.1 42
2019-09-24 19:00:00 26.7 7 Oeste 29 Oeste 0 915.8 -0.4 36
2019-09-24 18:00:00 27.2 12 Oeste 28 Sudoeste 0 915.8 -1.1 34
2019-09-24 17:00:00 27.7 9 Oeste 32 Oeste 0 916 -1.6 34
2019-09-24 16:00:00 27.8 13 Oeste 29 Oeste 0 916.2 -2 31
2019-09-24 15:00:00 26.9 13 Oeste 31 Oeste 0 916.9 -1.7 30
2019-09-24 14:00:00 26.1 11 Oeste 28 Oeste 0 917.6 -1.5 30
2019-09-24 13:00:00 24.7 9 Oeste 31 Oeste 0 918.2 -0.8 34
2019-09-24 12:00:00 22.5 14 Oeste 27 Oeste 0 918.6 -0.3 40
2019-09-24 11:00:00 18.6 4 Sudoeste 12 Sudeste 0 919.1 0.1 55
2019-09-24 10:00:00 15.2 3 Sur 10 Sudoeste 0 919 0.5 67
2019-09-24 09:00:00 12.1 5 Sudeste 9 Sudeste 0 918.9 0.6 79
2019-09-24 08:00:00 9.3 0 Calma 7 Sudeste 0 919 0.4 87
2019-09-24 07:00:00 11.1 6 Sudeste 13 Sudeste 0 918.5 -0.5 81
2019-09-24 06:00:00 11.1 7 Sudeste 11 Sudeste 0 918.3 -1.1 83
2019-09-24 05:00:00 10.9 8 Sudeste 10 Sudeste 0 918.6 -1.1 80
2019-09-24 04:00:00 12.4 5 Sudoeste 11 Sur 0 919 -1 74
2019-09-24 03:00:00 12.7 3 Sur 8 Sur 0 919.4 -0.7 70
2019-09-24 02:00:00 13.8 3 Sur 11 Sudoeste 0 919.7 -0.4 69
2019-09-24 01:00:00 14 3 Sudoeste 10 Sudeste 0 920 0.1 66
2019-09-24 00:00:00 15.2 4 Este 8 Sudeste 0 920.1 0.7 61
2019-09-23 23:00:00 16.5 6 Sudeste 13 Sudoeste 0 920.1 1 55
2019-09-23 22:00:00 18.5 6 Sudoeste 11 Oeste 0 919.9 1.2 49
2019-09-23 21:00:00 18.8 5 Nordeste 8 Oeste 0 919.4 0.7 47
2019-09-23 20:00:00 20.7 5 Noroeste 13 Noroeste 0 919.1 0.5 41
2019-09-23 19:00:00 22.9 5 Noroeste 20 Noroeste 0 918.7 -0.1 40
2019-09-23 18:00:00 23 6 Noroeste 19 Noroeste 0 918.7 -0.7 34
2019-09-23 17:00:00 23.7 8 Oeste 18 Oeste 0 918.6 -1.2 36
2019-09-23 16:00:00 23.3 7 Sur 19 Sur 0 918.8 -1.2 37
2019-09-23 15:00:00 22.2 7 Sudoeste 21 Sudoeste 0 919.4 -1.1 40
2019-09-23 14:00:00 20.9 7 Sudoeste 19 Sudoeste 0 919.8 -1 44
2019-09-23 13:00:00 20.3 8 Sudoeste 17 Sudoeste 0 920 -0.8 45
2019-09-23 12:00:00 18.5 6 Sudeste 16 Sur 0 920.5 0 48
2019-09-23 11:00:00 15.6 6 Sudoeste 12 Sudeste 0 920.8 0.8 66
2019-09-23 10:00:00 12.2 5 Sudeste 12 Sudeste 0 920.8 1.4 81
2019-09-23 09:00:00 7.8 0 Calma 3 Sudeste 0 920.5 1.7 93
2019-09-23 08:00:00 6.8 0 Calma 4 Sudeste 0 920 1.5 92
2019-09-23 07:00:00 7.1 0 Calma 5 Sur 0 919.4 1.1 92
2019-09-23 06:00:00 7.7 2 Sudeste 5 Sur 0 918.8 0.7 90
2019-09-23 05:00:00 8.5 0 Calma 3 Noroeste 0 918.5 0.5 89
2019-09-23 04:00:00 9.3 0 Calma 5 Sudeste 0 918.3 0.5 88
2019-09-23 03:00:00 10.4 2 Sudoeste 7 Sudeste 0 918.1 0.3 84
2019-09-23 02:00:00 11.1 4 Sudeste 8 Sudeste 0 918 0.7 80
2019-09-23 01:00:00 12.8 4 Sudeste 6 Sudeste 0 917.8 1.2 76
2019-09-23 00:00:00 13.7 2 Nordeste 5 Sur 0 917.8 1.8 76
2019-09-22 23:00:00 13.9 4 Sur 7 Sudeste 0 917.3 1.8 69
2019-09-22 22:00:00 14.9 0 Calma 8 Noroeste 0 916.6 1.8 63
2019-09-22 21:00:00 16.2 5 Norte 14 Noroeste 0 916 1.7 59
2019-09-22 20:00:00 18 6 Norte 19 Nordeste 0 915.5 1 56
2019-09-22 19:00:00 20.7 7 Noroeste 19 Noroeste 0 914.8 0 52
2019-09-22 18:00:00 20.6 5 Norte 15 Oeste 0 914.3 -0.5 58
2019-09-22 17:00:00 18.6 3 Este 14 Este 0 914.5 0.8 71
2019-09-22 16:00:00 17.4 3 Norte 15 Noroeste 0.6 914.8 0.9 78
2019-09-22 15:00:00 17.6 6 Noroeste 27 Noroeste 0 914.8 0.5 76
2019-09-22 14:00:00 22.1 8 Noroeste 26 Sudoeste 0 913.7 -0.2 55
2019-09-22 13:00:00 21.1 6 Noroeste 37 Oeste 0 913.9 0.2 54
2019-09-22 12:00:00 20.4 21 Sudoeste 37 Oeste 0 914.3 0.8 59
2019-09-22 11:00:00 19.4 14 Oeste 28 Sudoeste 0 913.9 0.8 64
2019-09-22 10:00:00 18.5 9 Sudeste 12 Sur 0 913.7 1.1 71
2019-09-22 09:00:00 15.9 3 Este 8 Sudeste 0 913.5 0.9 79
2019-09-22 08:00:00 14.8 2 Norte 12 Sudeste 0 913.1 0.8 84
2019-09-22 07:00:00 16.2 5 Sudeste 12 Sudoeste 0 912.6 -0.2 81
2019-09-22 06:00:00 16.2 2 Oeste 11 Sur 0.4 912.6 -0.3 84
2019-09-22 05:00:00 16.7 4 Sur 13 Sudoeste 0 912.3 -0.8 74
2019-09-22 04:00:00 17 8 Sudoeste 17 Sudoeste 0 912.8 -0.2 75
2019-09-22 03:00:00 16.8 7 Sudoeste 12 Sudoeste 0 912.9 -0.4 78
2019-09-22 02:00:00 16.6 4 Oeste 10 Sudoeste 0 913.1 0 78
2019-09-22 01:00:00 17.3 6 Sudoeste 14 Sur 0 913 -0.2 74
2019-09-22 00:00:00 17.5 4 Sur 12 Sudeste 0 913.3 0.2 69
2019-09-21 23:00:00 18.4 6 Sur 11 Sudoeste 0 913.1 0.3 66
2019-09-21 22:00:00 20.3 6 Sudoeste 14 Sudoeste 0 913.2 0.7 56
2019-09-21 21:00:00 21 7 Sudoeste 15 Oeste 0 913.1 0.8 52
2019-09-21 20:00:00 21.6 8 Oeste 20 Oeste 0 912.8 0.4 49
2019-09-21 19:00:00 22.4 6 Oeste 30 Oeste 0 912.5 -0.2 47
2019-09-21 18:00:00 23.1 9 Oeste 26 Oeste 0 912.3 -0.8 43
2019-09-21 17:00:00 23.7 10 Oeste 28 Oeste 0 912.4 -1.1 43
2019-09-21 16:00:00 23.7 10 Sudoeste 28 Sudoeste 0 912.7 -1.4 42
2019-09-21 15:00:00 23.7 12 Oeste 30 Sudoeste 0 913.1 -1.3 43
2019-09-21 14:00:00 23.3 14 Sudoeste 25 Sudoeste 0 913.5 -0.8 50
2019-09-21 13:00:00 23.1 10 Sur 23 Sur 0 914.1 -0.4 53
2019-09-21 12:00:00 21.3 8 Sur 18 Sudoeste 0 914.4 -0.3 58
2019-09-21 11:00:00 19.1 7 Sur 13 Sudoeste 0 914.3 0 69
2019-09-21 10:00:00 17 5 Sur 10 Sur 0 914.5 0.1 79
2019-09-21 09:00:00 14.6 4 Sudoeste 10 Sudoeste 0 914.7 0.3 88
2019-09-21 08:00:00 14.7 6 Sudoeste 24 Sur 0 914.3 -0.5 84
2019-09-21 07:00:00 15.2 5 Sudoeste 14 Norte 0 914.4 -0.9 82
2019-09-21 06:00:00 15.2 6 Sur 14 Sur 0 914.4 -0.7 83
2019-09-21 05:00:00 14.6 2 Sur 10 Oeste 0 914.8 -0.7 88
2019-09-21 04:00:00 14.9 5 Sudoeste 13 Oeste 0.2 915.3 -0.3 88
2019-09-21 03:00:00 15.6 7 Sur 32 Sudeste 0.4 915.1 -0.6 85
2019-09-21 02:00:00 17 22 Sudeste 35 Sudeste 0 915.5 -0.5 73
2019-09-21 01:00:00 18.7 10 Sur 28 Sudeste 0 915.6 -0.5 72
2019-09-21 00:00:00 19 12 Sudeste 26 Sudeste 0 915.7 -0.1 68
2019-09-20 23:00:00 19.2 13 Sur 27 Sur 0 916 0.2 68
2019-09-20 22:00:00 19.4 10 Sur 26 Sur 0 916.1 0.7 67
2019-09-20 21:00:00 20.3 15 Sudeste 28 Sur 0 915.8 0.6 62
2019-09-20 20:00:00 21.5 17 Sudeste 36 Sur 0 915.8 0.4 58
2019-09-20 19:00:00 22.9 19 Sur 35 Sur 0 915.4 -0.4 53
2019-09-20 18:00:00 24.8 15 Sur 32 Sur 0 915.2 -1.4 46
2019-09-20 17:00:00 25.6 17 Sur 35 Sur 0 915.4 -1.6 43
2019-09-20 16:00:00 26.6 14 Sur 26 Sudeste 0 915.8 -1.9 37
2019-09-20 15:00:00 25.8 11 Sur 25 Sudeste 0 916.6 -1.5 43
2019-09-20 14:00:00 24.3 12 Sudeste 24 Sudeste 0 917 -1.5 50
2019-09-20 13:00:00 22.1 15 Sudoeste 30 Sur 0 917.7 -0.8 57
2019-09-20 12:00:00 21.2 15 Sudoeste 30 Sudoeste 0 918.1 -0.1 60
2019-09-20 11:00:00 19.8 10 Sudoeste 22 Oeste 0 918.5 0.7 69
2019-09-20 10:00:00 17.1 4 Sur 8 Sur 0 918.5 1 82
2019-09-20 09:00:00 15.1 6 Sudeste 10 Sudeste 0 918.2 0.5 90
2019-09-20 08:00:00 13.7 6 Sudeste 11 Sudeste 0 917.8 -0.2 93
2019-09-20 07:00:00 13.7 4 Sur 8 Sudeste 0 917.5 -0.7 92
2019-09-20 06:00:00 13.9 5 Sudeste 8 Sudeste 0 917.7 -0.5 88
2019-09-20 05:00:00 14.7 7 Sudeste 10 Sudeste 0 918 -0.4 92
2019-09-20 04:00:00 14.2 8 Sudeste 9 Sudeste 0 918.2 -0.2 88
2019-09-20 03:00:00 14.8 4 Sudeste 9 Sudeste 0 918.2 -0.2 83
2019-09-20 02:00:00 15.5 5 Sur 10 Sur 0 918.4 -0.5 83
2019-09-20 01:00:00 15.9 6 Sudeste 16 Sur 0 918.4 -0.5 83
2019-09-20 00:00:00 17.5 10 Sur 17 Sur 0 918.4 0.3 82
2019-09-19 23:00:00 18.5 4 Sur 10 Sudoeste 0 918.9 1.5 76
2019-09-19 22:00:00 19.2 6 Sudoeste 21 Sudeste 0 918.9 2.5 69
2019-09-19 21:00:00 19.9 11 Sudeste 26 Este 0 918.1 2.2 61
2019-09-19 20:00:00 19.8 21 Este 33 Este 0 917.4 1.4 61
2019-09-19 19:00:00 23.5 14 Sudeste 52 Este 0 916.4 0.3 44
2019-09-19 18:00:00 26.1 12 Nordeste 25 Nordeste 0 915.9 -0.9 41
2019-09-19 17:00:00 26.6 5 Oeste 15 Sudoeste 0 916 -1.5 34
2019-09-19 16:00:00 27.7 4 Oeste 17 Sudoeste 0 916.1 -2 33
2019-09-19 15:00:00 26.8 6 Este 13 Nordeste 0 916.8 -1.8 33
2019-09-19 14:00:00 26.2 4 Oeste 15 Sudoeste 0 917.5 -1.3 40
2019-09-19 13:00:00 23.6 6 Sudoeste 14 Sudoeste 0 918.1 -0.6 52
2019-09-19 12:00:00 20.9 3 Sudeste 9 Sudoeste 0 918.6 0.1 63
2019-09-19 11:00:00 17.4 4 Sudoeste 7 Sur 0 918.8 0.6 75
2019-09-19 10:00:00 14.4 3 Sudeste 5 Este 0 918.7 0.6 84
2019-09-19 09:00:00 11.5 0 Calma 5 Sur 0 918.5 0.5 90
2019-09-19 08:00:00 10.1 4 Sudeste 5 Sur 0 918.2 0.3 92
2019-09-19 07:00:00 10.6 2 Sudoeste 9 Sudeste 0 918.1 0 92
2019-09-19 06:00:00 11 0 Calma 4 Noroeste 0 918 -0.3 93
2019-09-19 05:00:00 11.7 2 Nordeste 5 Norte 0 917.9 -0.5 93
2019-09-19 04:00:00 12.2 2 Noroeste 4 Nordeste 0 918.1 -0.3 91
2019-09-19 03:00:00 13 3 Noroeste 5 Noroeste 0 918.3 -0.3 88
2019-09-19 02:00:00 13.9 3 Nordeste 7 Este 0 918.4 0 87
2019-09-19 01:00:00 15.8 3 Sudoeste 12 Este 0 918.4 0.3 79
2019-09-19 00:00:00 16.6 5 Sudeste 13 Sudeste 0 918.6 1.1 76
2019-09-18 23:00:00 18.2 4 Sudoeste 16 Sudoeste 0 918.4 1.4 65
2019-09-18 22:00:00 18.8 3 Sudeste 8 Sudeste 0 918.1 1.7 62
2019-09-18 21:00:00 20.4 4 Norte 19 Este 0 917.5 1.2 55
2019-09-18 20:00:00 22.5 13 Este 19 Este 0 917 0.6 48
2019-09-18 19:00:00 23.5 4 Norte 12 Noroeste 0 916.4 -0.5 46
2019-09-18 18:00:00 23.7 5 Norte 10 Noroeste 0 916.3 -0.8 45
2019-09-18 17:00:00 24.2 4 Noroeste 11 Noroeste 0 916.4 -1.1 44
2019-09-18 16:00:00 24.8 5 Noroeste 16 Norte 0 916.9 -0.9 42
2019-09-18 15:00:00 24.4 6 Norte 14 Norte 0 917.1 -0.9 44
2019-09-18 14:00:00 23.1 4 Noroeste 7 Norte 0 917.5 -0.5 49
2019-09-18 13:00:00 21.8 3 Sudoeste 7 Sudoeste 0 917.8 0 51
2019-09-18 12:00:00 19.4 3 Oeste 7 Noroeste 0 918 0.5 68
2019-09-18 11:00:00 16.6 2 Norte 10 Oeste 0 918 0.7 75
2019-09-18 10:00:00 14.8 5 Sudeste 9 Sudeste 0 917.8 1.1 87
2019-09-18 09:00:00 11.1 2 Noroeste 6 Oeste 0 917.5 0.9 93
2019-09-18 08:00:00 10.1 0 Calma 7 Sur 0 917.3 0.6 93
2019-09-18 07:00:00 10.8 0 Calma 6 Sur 0 916.7 -0.2 93
2019-09-18 06:00:00 11.2 5 Sudeste 8 Sudeste 0 916.6 -0.3 93
2019-09-18 05:00:00 11.9 2 Nordeste 10 Sudeste 0 916.7 -0.3 93
2019-09-18 04:00:00 12.8 7 Sudeste 10 Sudeste 0 916.9 -0.3 91
2019-09-18 03:00:00 13.3 2 Este 5 Sur 0 916.9 -1.3 92
2019-09-18 02:00:00 14.6 3 Sur 12 Sudeste 0 917 -2.1 89
2019-09-18 01:00:00 16.1 4 Sudoeste 31 Sudoeste 0 917.2 -1.6 82
2019-09-18 00:00:00 16.1 5 Sudeste 19 Sudeste 0.8 918.2 2.4 88
2019-09-17 23:00:00 16.9 9 Sudeste 26 Sudeste 1 919.1 3.9 81
2019-09-17 22:00:00 19.3 12 Sudoeste 55 Oeste 0.2 918.8 3.6 67
2019-09-17 21:00:00 22.7 4 Este 19 Nordeste 0 915.8 0.6 47